sensor_id;sensor_type;location;lat;lon;timestamp;pressure;altitude;pressure_sealevel;temperature;humidity
59787;BME280;45672;51.612;5.536;2023-06-22T00:00:27;101703.81;;;21.23;66.93
59787;BME280;45672;51.612;5.536;2023-06-22T00:02:52;101693.16;;;21.14;67.08
59787;BME280;45672;51.612;5.536;2023-06-22T00:05:17;101688.56;;;21.08;67.18
59787;BME280;45672;51.612;5.536;2023-06-22T00:07:42;101683.56;;;20.98;67.44
59787;BME280;45672;51.612;5.536;2023-06-22T00:10:08;101674.78;;;20.96;67.80
59787;BME280;45672;51.612;5.536;2023-06-22T00:12:33;101672.50;;;20.93;68.10
59787;BME280;45672;51.612;5.536;2023-06-22T00:14:58;101673.53;;;20.86;69.16
59787;BME280;45672;51.612;5.536;2023-06-22T00:17:24;101673.88;;;20.69;69.99
59787;BME280;45672;51.612;5.536;2023-06-22T00:19:49;101690.88;;;20.63;70.43
59787;BME280;45672;51.612;5.536;2023-06-22T00:22:18;101694.63;;;20.62;70.56
59787;BME280;45672;51.612;5.536;2023-06-22T00:24:46;101684.06;;;20.67;70.88
59787;BME280;45672;51.612;5.536;2023-06-22T00:27:11;101685.53;;;20.70;71.26
59787;BME280;45672;51.612;5.536;2023-06-22T00:29:37;101682.13;;;20.54;71.84
59787;BME280;45672;51.612;5.536;2023-06-22T00:32:02;101701.63;;;20.49;71.96
59787;BME280;45672;51.612;5.536;2023-06-22T00:34:28;101684.53;;;20.42;72.81
59787;BME280;45672;51.612;5.536;2023-06-22T00:36:54;101688.75;;;20.52;72.59
59787;BME280;45672;51.612;5.536;2023-06-22T00:39:19;101680.00;;;20.49;72.71
59787;BME280;45672;51.612;5.536;2023-06-22T00:41:44;101690.22;;;20.54;72.70
59787;BME280;45672;51.612;5.536;2023-06-22T00:44:09;101688.31;;;20.48;72.93
59787;BME280;45672;51.612;5.536;2023-06-22T00:46:35;101687.28;;;20.49;73.43
59787;BME280;45672;51.612;5.536;2023-06-22T00:49:00;101675.84;;;20.47;73.63
59787;BME280;45672;51.612;5.536;2023-06-22T00:51:26;101684.38;;;20.50;73.58
59787;BME280;45672;51.612;5.536;2023-06-22T00:53:51;101678.75;;;20.45;74.07
59787;BME280;45672;51.612;5.536;2023-06-22T00:56:18;101683.13;;;20.53;73.53
59787;BME280;45672;51.612;5.536;2023-06-22T00:58:45;101675.00;;;20.46;74.17
59787;BME280;45672;51.612;5.536;2023-06-22T01:01:12;101672.50;;;20.45;74.16
59787;BME280;45672;51.612;5.536;2023-06-22T01:03:39;101685.22;;;20.51;74.19
59787;BME280;45672;51.612;5.536;2023-06-22T01:06:09;101680.81;;;20.43;74.70
59787;BME280;45672;51.612;5.536;2023-06-22T01:08:41;101677.47;;;20.41;75.17
59787;BME280;45672;51.612;5.536;2023-06-22T01:11:17;101661.22;;;20.35;75.30
59787;BME280;45672;51.612;5.536;2023-06-22T01:14:00;101652.50;;;20.32;74.41
59787;BME280;45672;51.612;5.536;2023-06-22T01:16:33;101662.44;;;20.32;76.25
59787;BME280;45672;51.612;5.536;2023-06-22T01:19:03;101659.94;;;20.30;76.35
59787;BME280;45672;51.612;5.536;2023-06-22T01:21:31;101672.44;;;20.31;77.02
59787;BME280;45672;51.612;5.536;2023-06-22T01:29:00;101662.25;;;20.33;77.73
59787;BME280;45672;51.612;5.536;2023-06-22T01:31:28;101667.03;;;20.31;77.85
59787;BME280;45672;51.612;5.536;2023-06-22T01:34:03;101671.22;;;20.34;77.66
59787;BME280;45672;51.612;5.536;2023-06-22T01:36:31;101666.78;;;20.26;78.46
59787;BME280;45672;51.612;5.536;2023-06-22T01:38:57;101674.88;;;20.26;79.13
59787;BME280;45672;51.612;5.536;2023-06-22T01:41:28;101681.09;;;20.20;79.04
59787;BME280;45672;51.612;5.536;2023-06-22T01:43:55;101678.19;;;20.22;79.15
59787;BME280;45672;51.612;5.536;2023-06-22T01:46:21;101677.75;;;20.18;79.60
59787;BME280;45672;51.612;5.536;2023-06-22T01:48:47;101678.19;;;20.22;79.93
59787;BME280;45672;51.612;5.536;2023-06-22T01:51:13;101671.56;;;20.24;79.46
59787;BME280;45672;51.612;5.536;2023-06-22T01:53:39;101671.16;;;20.27;79.67
59787;BME280;45672;51.612;5.536;2023-06-22T01:56:04;101652.00;;;20.22;79.22
59787;BME280;45672;51.612;5.536;2023-06-22T01:58:31;101652.25;;;20.27;79.37
59787;BME280;45672;51.612;5.536;2023-06-22T02:01:10;101648.66;;;20.20;79.07
59787;BME280;45672;51.612;5.536;2023-06-22T02:03:41;101651.94;;;20.09;80.70
59787;BME280;45672;51.612;5.536;2023-06-22T02:06:16;101663.28;;;19.97;81.10
59787;BME280;45672;51.612;5.536;2023-06-22T02:08:47;101650.53;;;19.85;81.57
59787;BME280;45672;51.612;5.536;2023-06-22T02:11:15;101656.34;;;19.82;82.10
59787;BME280;45672;51.612;5.536;2023-06-22T02:13:41;101658.38;;;19.79;82.09
59787;BME280;45672;51.612;5.536;2023-06-22T02:16:10;101660.41;;;19.77;82.12
59787;BME280;45672;51.612;5.536;2023-06-22T02:18:35;101657.56;;;19.79;82.05
59787;BME280;45672;51.612;5.536;2023-06-22T02:21:01;101657.06;;;19.75;82.38
59787;BME280;45672;51.612;5.536;2023-06-22T02:23:27;101649.56;;;19.71;82.60
59787;BME280;45672;51.612;5.536;2023-06-22T02:25:52;101657.84;;;19.69;82.92
59787;BME280;45672;51.612;5.536;2023-06-22T02:28:17;101656.56;;;19.65;83.43
59787;BME280;45672;51.612;5.536;2023-06-22T02:30:43;101656.97;;;19.62;83.68
59787;BME280;45672;51.612;5.536;2023-06-22T02:33:08;101649.91;;;19.61;83.22
59787;BME280;45672;51.612;5.536;2023-06-22T02:35:33;101651.13;;;19.58;83.71
59787;BME280;45672;51.612;5.536;2023-06-22T02:38:01;101642.59;;;19.55;83.83
59787;BME280;45672;51.612;5.536;2023-06-22T02:40:28;101645.28;;;19.55;83.75
59787;BME280;45672;51.612;5.536;2023-06-22T02:42:54;101643.59;;;19.54;83.85
59787;BME280;45672;51.612;5.536;2023-06-22T02:45:20;101641.56;;;19.56;84.63
59787;BME280;45672;51.612;5.536;2023-06-22T02:47:45;101637.81;;;19.57;83.87
59787;BME280;45672;51.612;5.536;2023-06-22T02:50:13;101630.31;;;19.52;84.34
59787;BME280;45672;51.612;5.536;2023-06-22T02:52:38;101619.03;;;19.42;84.48
59787;BME280;45672;51.612;5.536;2023-06-22T02:55:05;101631.31;;;19.44;84.97
59787;BME280;45672;51.612;5.536;2023-06-22T02:57:32;101614.03;;;19.39;85.10
59787;BME280;45672;51.612;5.536;2023-06-22T02:59:57;101620.50;;;19.44;84.78
59787;BME280;45672;51.612;5.536;2023-06-22T03:02:23;101618.66;;;19.23;86.16
59787;BME280;45672;51.612;5.536;2023-06-22T03:04:48;101619.22;;;19.19;86.08
59787;BME280;45672;51.612;5.536;2023-06-22T03:07:14;101622.88;;;19.11;87.09
59787;BME280;45672;51.612;5.536;2023-06-22T03:09:40;101609.66;;;18.94;88.06
59787;BME280;45672;51.612;5.536;2023-06-22T03:12:07;101612.53;;;18.93;87.86
59787;BME280;45672;51.612;5.536;2023-06-22T03:14:33;101604.84;;;18.90;87.84
59787;BME280;45672;51.612;5.536;2023-06-22T03:16:58;101598.97;;;18.86;88.15
59787;BME280;45672;51.612;5.536;2023-06-22T03:19:28;101604.47;;;18.78;88.83
59787;BME280;45672;51.612;5.536;2023-06-22T03:21:54;101600.03;;;18.70;89.37
59787;BME280;45672;51.612;5.536;2023-06-22T03:24:20;101602.16;;;18.75;89.25
59787;BME280;45672;51.612;5.536;2023-06-22T03:26:45;101608.28;;;18.84;89.52
59787;BME280;45672;51.612;5.536;2023-06-22T03:29:12;101598.50;;;18.83;89.28
59787;BME280;45672;51.612;5.536;2023-06-22T03:31:37;101598.97;;;18.86;88.79
59787;BME280;45672;51.612;5.536;2023-06-22T03:34:02;101596.28;;;18.86;88.75
59787;BME280;45672;51.612;5.536;2023-06-22T03:36:28;101595.44;;;18.86;88.87
59787;BME280;45672;51.612;5.536;2023-06-22T03:38:53;101600.56;;;18.81;89.06
59787;BME280;45672;51.612;5.536;2023-06-22T03:41:18;101598.91;;;18.80;89.05
59787;BME280;45672;51.612;5.536;2023-06-22T03:43:44;101599.16;;;18.85;88.72
59787;BME280;45672;51.612;5.536;2023-06-22T03:46:09;101594.44;;;18.87;88.75
59787;BME280;45672;51.612;5.536;2023-06-22T03:48:34;101602.13;;;18.90;88.99
59787;BME280;45672;51.612;5.536;2023-06-22T03:51:01;101601.94;;;18.91;88.37
59787;BME280;45672;51.612;5.536;2023-06-22T03:53:26;101605.09;;;18.95;87.88
59787;BME280;45672;51.612;5.536;2023-06-22T03:55:52;101594.50;;;18.93;88.36
59787;BME280;45672;51.612;5.536;2023-06-22T03:58:21;101586.63;;;18.92;88.58
59787;BME280;45672;51.612;5.536;2023-06-22T04:00:50;101592.72;;;18.86;89.02
59787;BME280;45672;51.612;5.536;2023-06-22T04:03:16;101585.22;;;18.81;89.30
59787;BME280;45672;51.612;5.536;2023-06-22T04:05:45;101580.84;;;18.80;89.56
59787;BME280;45672;51.612;5.536;2023-06-22T04:08:12;101582.13;;;18.84;89.58
59787;BME280;45672;51.612;5.536;2023-06-22T04:10:38;101573.63;;;18.81;89.35
59787;BME280;45672;51.612;5.536;2023-06-22T04:13:03;101573.13;;;18.92;88.45
59787;BME280;45672;51.612;5.536;2023-06-22T04:15:28;101574.03;;;18.99;88.41
59787;BME280;45672;51.612;5.536;2023-06-22T04:17:55;101587.72;;;18.98;88.27
59787;BME280;45672;51.612;5.536;2023-06-22T04:20:21;101581.72;;;19.02;88.30
59787;BME280;45672;51.612;5.536;2023-06-22T04:22:46;101582.81;;;19.08;87.91
59787;BME280;45672;51.612;5.536;2023-06-22T04:25:12;101584.50;;;19.09;87.88
59787;BME280;45672;51.612;5.536;2023-06-22T04:27:37;101576.34;;;19.02;88.18
59787;BME280;45672;51.612;5.536;2023-06-22T04:30:06;101579.84;;;19.03;88.28
59787;BME280;45672;51.612;5.536;2023-06-22T04:32:33;101585.53;;;19.08;88.30
59787;BME280;45672;51.612;5.536;2023-06-22T04:34:58;101589.50;;;19.12;88.53
59787;BME280;45672;51.612;5.536;2023-06-22T04:37:25;101588.09;;;19.16;88.68
59787;BME280;45672;51.612;5.536;2023-06-22T04:39:51;101587.91;;;19.18;88.42
59787;BME280;45672;51.612;5.536;2023-06-22T04:42:17;101584.34;;;19.17;88.53
59787;BME280;45672;51.612;5.536;2023-06-22T04:44:42;101581.84;;;19.16;88.67
59787;BME280;45672;51.612;5.536;2023-06-22T04:47:08;101587.44;;;19.14;89.10
59787;BME280;45672;51.612;5.536;2023-06-22T04:49:34;101588.53;;;19.20;88.97
59787;BME280;45672;51.612;5.536;2023-06-22T04:52:03;101591.09;;;19.28;88.56
59787;BME280;45672;51.612;5.536;2023-06-22T04:54:30;101593.59;;;19.29;88.94
59787;BME280;45672;51.612;5.536;2023-06-22T04:56:58;101598.66;;;19.39;88.65
59787;BME280;45672;51.612;5.536;2023-06-22T04:59:24;101598.53;;;19.54;88.05
59787;BME280;45672;51.612;5.536;2023-06-22T05:02:00;101597.44;;;19.70;87.58
59787;BME280;45672;51.612;5.536;2023-06-22T05:04:28;101598.38;;;19.84;86.85
59787;BME280;45672;51.612;5.536;2023-06-22T05:06:56;101593.47;;;20.01;86.50
59787;BME280;45672;51.612;5.536;2023-06-22T05:09:22;101585.50;;;20.21;85.61
59787;BME280;45672;51.612;5.536;2023-06-22T05:11:47;101583.66;;;20.35;84.31
59787;BME280;45672;51.612;5.536;2023-06-22T05:14:13;101587.25;;;20.49;84.54
59787;BME280;45672;51.612;5.536;2023-06-22T05:16:40;101584.13;;;20.45;84.05
59787;BME280;45672;51.612;5.536;2023-06-22T05:19:06;101588.06;;;20.49;84.18
59787;BME280;45672;51.612;5.536;2023-06-22T05:21:32;101592.44;;;20.50;83.66
59787;BME280;45672;51.612;5.536;2023-06-22T05:23:57;101594.53;;;20.55;84.05
59787;BME280;45672;51.612;5.536;2023-06-22T05:26:26;101584.78;;;20.61;84.42
59787;BME280;45672;51.612;5.536;2023-06-22T05:28:52;101594.22;;;20.72;83.67
59787;BME280;45672;51.612;5.536;2023-06-22T05:31:18;101597.13;;;20.70;83.44
59787;BME280;45672;51.612;5.536;2023-06-22T05:33:46;101598.81;;;20.71;83.37
59787;BME280;45672;51.612;5.536;2023-06-22T05:36:12;101601.50;;;20.71;83.35
59787;BME280;45672;51.612;5.536;2023-06-22T05:38:38;101602.94;;;20.67;83.89
59787;BME280;45672;51.612;5.536;2023-06-22T05:41:03;101592.53;;;20.71;83.51
59787;BME280;45672;51.612;5.536;2023-06-22T05:43:28;101590.28;;;20.74;83.34
59787;BME280;45672;51.612;5.536;2023-06-22T05:45:54;101583.63;;;20.77;83.42
59787;BME280;45672;51.612;5.536;2023-06-22T05:48:19;101574.25;;;20.79;83.04
59787;BME280;45672;51.612;5.536;2023-06-22T05:50:45;101571.75;;;20.78;83.40
59787;BME280;45672;51.612;5.536;2023-06-22T05:53:10;101574.25;;;20.79;83.15
59787;BME280;45672;51.612;5.536;2023-06-22T05:55:35;101588.22;;;20.90;83.11
59787;BME280;45672;51.612;5.536;2023-06-22T05:58:01;101572.84;;;20.97;83.07
59787;BME280;45672;51.612;5.536;2023-06-22T06:00:28;101577.84;;;21.07;82.43
59787;BME280;45672;51.612;5.536;2023-06-22T06:02:53;101581.16;;;21.09;82.50
59787;BME280;45672;51.612;5.536;2023-06-22T06:05:18;101578.03;;;21.18;82.53
59787;BME280;45672;51.612;5.536;2023-06-22T06:07:45;101586.16;;;21.39;81.57
59787;BME280;45672;51.612;5.536;2023-06-22T06:10:11;101590.75;;;21.51;81.24
59787;BME280;45672;51.612;5.536;2023-06-22T06:12:37;101588.66;;;21.60;80.10
59787;BME280;45672;51.612;5.536;2023-06-22T06:15:03;101578.88;;;21.66;79.77
59787;BME280;45672;51.612;5.536;2023-06-22T06:17:28;101581.56;;;21.79;79.46
59787;BME280;45672;51.612;5.536;2023-06-22T06:19:54;101582.00;;;21.69;80.42
59787;BME280;45672;51.612;5.536;2023-06-22T06:22:19;101574.69;;;21.70;79.91
59787;BME280;45672;51.612;5.536;2023-06-22T06:24:47;101572.84;;;21.64;80.58
59787;BME280;45672;51.612;5.536;2023-06-22T06:27:13;101563.88;;;21.70;80.95
59787;BME280;45672;51.612;5.536;2023-06-22T06:29:38;101575.50;;;21.77;80.83
59787;BME280;45672;51.612;5.536;2023-06-22T06:32:03;101577.56;;;21.95;80.34
59787;BME280;45672;51.612;5.536;2023-06-22T06:34:29;101567.69;;;22.14;79.17
59787;BME280;45672;51.612;5.536;2023-06-22T06:36:54;101577.38;;;22.49;78.17
59787;BME280;45672;51.612;5.536;2023-06-22T06:39:19;101573.66;;;22.75;75.32
59787;BME280;45672;51.612;5.536;2023-06-22T06:41:45;101583.13;;;22.98;75.85
59787;BME280;45672;51.612;5.536;2023-06-22T06:44:11;101579.78;;;23.28;73.52
59787;BME280;45672;51.612;5.536;2023-06-22T06:46:36;101576.88;;;23.48;72.98
59787;BME280;45672;51.612;5.536;2023-06-22T06:49:02;101573.38;;;23.66;72.17
59787;BME280;45672;51.612;5.536;2023-06-22T06:51:27;101574.88;;;23.80;71.77
59787;BME280;45672;51.612;5.536;2023-06-22T06:53:52;101581.13;;;23.87;70.67
59787;BME280;45672;51.612;5.536;2023-06-22T06:56:18;101579.41;;;23.68;70.33
59787;BME280;45672;51.612;5.536;2023-06-22T06:58:43;101583.84;;;23.62;71.50
59787;BME280;45672;51.612;5.536;2023-06-22T07:01:10;101573.66;;;23.57;71.11
59787;BME280;45672;51.612;5.536;2023-06-22T07:03:36;101579.78;;;23.53;70.24
59787;BME280;45672;51.612;5.536;2023-06-22T07:06:01;101575.88;;;23.42;69.90
59787;BME280;45672;51.612;5.536;2023-06-22T07:08:26;101580.41;;;23.30;70.34
59787;BME280;45672;51.612;5.536;2023-06-22T07:10:52;101565.06;;;23.17;70.62
59787;BME280;45672;51.612;5.536;2023-06-22T07:13:17;101571.31;;;23.11;70.24
59787;BME280;45672;51.612;5.536;2023-06-22T07:15:43;101570.31;;;23.05;70.35
59787;BME280;45672;51.612;5.536;2023-06-22T07:18:08;101558.50;;;22.93;70.88
59787;BME280;45672;51.612;5.536;2023-06-22T07:20:33;101561.75;;;22.83;71.01
59787;BME280;45672;51.612;5.536;2023-06-22T07:22:59;101552.81;;;22.76;72.25
59787;BME280;45672;51.612;5.536;2023-06-22T07:25:25;101554.22;;;22.78;72.47
59787;BME280;45672;51.612;5.536;2023-06-22T07:28:02;101540.06;;;22.76;71.29
59787;BME280;45672;51.612;5.536;2023-06-22T07:30:29;101550.94;;;22.76;71.84
59787;BME280;45672;51.612;5.536;2023-06-22T07:32:54;101551.97;;;22.75;71.01
59787;BME280;45672;51.612;5.536;2023-06-22T07:35:20;101556.72;;;22.80;71.71
59787;BME280;45672;51.612;5.536;2023-06-22T07:37:45;101551.75;;;22.77;71.49
59787;BME280;45672;51.612;5.536;2023-06-22T07:40:11;101555.34;;;22.70;71.95
59787;BME280;45672;51.612;5.536;2023-06-22T07:42:36;101557.63;;;22.73;70.76
59787;BME280;45672;51.612;5.536;2023-06-22T07:45:03;101556.72;;;22.80;71.78
59787;BME280;45672;51.612;5.536;2023-06-22T07:47:29;101556.41;;;22.95;70.90
59787;BME280;45672;51.612;5.536;2023-06-22T07:49:55;101551.50;;;23.10;70.70
59787;BME280;45672;51.612;5.536;2023-06-22T07:52:23;101547.34;;;23.14;69.87
59787;BME280;45672;51.612;5.536;2023-06-22T07:54:48;101538.75;;;23.17;68.76
59787;BME280;45672;51.612;5.536;2023-06-22T07:57:14;101528.47;;;23.19;69.54
59787;BME280;45672;51.612;5.536;2023-06-22T07:59:39;101511.34;;;23.44;68.02
59787;BME280;45672;51.612;5.536;2023-06-22T08:02:05;101510.81;;;23.72;66.80
59787;BME280;45672;51.612;5.536;2023-06-22T08:04:30;101509.00;;;24.03;65.61
59787;BME280;45672;51.612;5.536;2023-06-22T08:06:57;101506.66;;;24.37;64.78
59787;BME280;45672;51.612;5.536;2023-06-22T08:09:22;101502.91;;;24.81;62.90
59787;BME280;45672;51.612;5.536;2023-06-22T08:11:47;101492.38;;;25.08;61.75
59787;BME280;45672;51.612;5.536;2023-06-22T08:14:14;101492.97;;;25.10;61.36
59787;BME280;45672;51.612;5.536;2023-06-22T08:16:40;101483.16;;;25.09;60.89
59787;BME280;45672;51.612;5.536;2023-06-22T08:19:06;101485.28;;;25.30;59.88
59787;BME280;45672;51.612;5.536;2023-06-22T08:21:31;101482.19;;;25.51;58.98
59787;BME280;45672;51.612;5.536;2023-06-22T08:23:57;101475.22;;;25.43;57.30
59787;BME280;45672;51.612;5.536;2023-06-22T08:26:22;101469.78;;;25.07;58.69
59787;BME280;45672;51.612;5.536;2023-06-22T08:28:48;101472.13;;;24.80;59.23
59787;BME280;45672;51.612;5.536;2023-06-22T08:31:13;101456.66;;;24.50;59.49
59787;BME280;45672;51.612;5.536;2023-06-22T08:33:39;101469.19;;;24.39;59.79
59787;BME280;45672;51.612;5.536;2023-06-22T08:36:05;101464.06;;;24.31;60.61
59787;BME280;45672;51.612;5.536;2023-06-22T08:38:31;101468.22;;;24.34;61.47
59787;BME280;45672;51.612;5.536;2023-06-22T08:40:56;101467.91;;;24.42;61.35
59787;BME280;45672;51.612;5.536;2023-06-22T08:43:22;101461.25;;;24.38;59.55
59787;BME280;45672;51.612;5.536;2023-06-22T08:45:47;101469.06;;;24.46;59.68
59787;BME280;45672;51.612;5.536;2023-06-22T08:48:13;101463.28;;;24.42;59.15
59787;BME280;45672;51.612;5.536;2023-06-22T08:50:38;101465.50;;;24.34;59.16
59787;BME280;45672;51.612;5.536;2023-06-22T08:53:05;101477.22;;;24.46;60.15
59787;BME280;45672;51.612;5.536;2023-06-22T08:55:31;101461.13;;;24.44;57.45
59787;BME280;45672;51.612;5.536;2023-06-22T08:57:56;101465.53;;;24.46;57.84
59787;BME280;45672;51.612;5.536;2023-06-22T09:00:22;101465.78;;;24.56;58.64
59787;BME280;45672;51.612;5.536;2023-06-22T09:02:48;101461.78;;;24.58;57.59
59787;BME280;45672;51.612;5.536;2023-06-22T09:05:14;101461.03;;;24.39;57.44
59787;BME280;45672;51.612;5.536;2023-06-22T09:07:40;101458.03;;;24.29;57.72
59787;BME280;45672;51.612;5.536;2023-06-22T09:10:06;101451.66;;;24.35;56.68
59787;BME280;45672;51.612;5.536;2023-06-22T09:12:32;101450.97;;;24.40;57.72
59787;BME280;45672;51.612;5.536;2023-06-22T09:14:58;101457.75;;;24.49;57.28
59787;BME280;45672;51.612;5.536;2023-06-22T09:17:25;101455.38;;;24.53;57.76
59787;BME280;45672;51.612;5.536;2023-06-22T09:19:50;101455.59;;;24.51;57.95
59787;BME280;45672;51.612;5.536;2023-06-22T09:22:16;101450.03;;;24.46;58.02
59787;BME280;45672;51.612;5.536;2023-06-22T09:24:41;101452.03;;;24.39;56.60
59787;BME280;45672;51.612;5.536;2023-06-22T09:27:06;101437.81;;;24.25;56.52
59787;BME280;45672;51.612;5.536;2023-06-22T09:29:31;101440.47;;;24.13;56.73
59787;BME280;45672;51.612;5.536;2023-06-22T09:32:00;101445.59;;;24.21;58.31
59787;BME280;45672;51.612;5.536;2023-06-22T09:34:25;101442.22;;;24.38;57.29
59787;BME280;45672;51.612;5.536;2023-06-22T09:36:51;101443.41;;;24.42;57.39
59787;BME280;45672;51.612;5.536;2023-06-22T09:39:18;101448.38;;;24.45;58.03
59787;BME280;45672;51.612;5.536;2023-06-22T09:41:43;101444.81;;;24.44;57.08
59787;BME280;45672;51.612;5.536;2023-06-22T09:44:08;101436.22;;;24.48;56.99
59787;BME280;45672;51.612;5.536;2023-06-22T09:46:34;101442.34;;;24.43;57.08
59787;BME280;45672;51.612;5.536;2023-06-22T09:48:59;101445.28;;;24.41;57.61
59787;BME280;45672;51.612;5.536;2023-06-22T09:51:24;101441.13;;;24.39;58.63
59787;BME280;45672;51.612;5.536;2023-06-22T09:53:51;101440.88;;;24.29;58.71
59787;BME280;45672;51.612;5.536;2023-06-22T09:56:17;101428.09;;;24.29;58.73
59787;BME280;45672;51.612;5.536;2023-06-22T09:58:43;101416.16;;;24.18;59.00
59787;BME280;45672;51.612;5.536;2023-06-22T10:01:09;101439.34;;;24.21;59.88
59787;BME280;45672;51.612;5.536;2023-06-22T10:03:36;101430.34;;;24.20;59.92
59787;BME280;45672;51.612;5.536;2023-06-22T10:06:02;101427.72;;;24.14;60.75
59787;BME280;45672;51.612;5.536;2023-06-22T10:08:27;101424.91;;;24.20;61.20
59787;BME280;45672;51.612;5.536;2023-06-22T10:10:52;101425.13;;;24.19;61.15
59787;BME280;45672;51.612;5.536;2023-06-22T10:13:18;101425.38;;;24.17;61.83
59787;BME280;45672;51.612;5.536;2023-06-22T10:15:44;101423.38;;;24.24;61.17
59787;BME280;45672;51.612;5.536;2023-06-22T10:18:17;101427.53;;;24.27;61.08
59787;BME280;45672;51.612;5.536;2023-06-22T10:20:43;101425.03;;;24.25;61.60
59787;BME280;45672;51.612;5.536;2023-06-22T10:23:09;101413.22;;;24.32;62.01
59787;BME280;45672;51.612;5.536;2023-06-22T10:25:34;101424.00;;;24.50;61.01
59787;BME280;45672;51.612;5.536;2023-06-22T10:27:59;101421.66;;;24.54;60.78
59787;BME280;45672;51.612;5.536;2023-06-22T10:30:25;101413.84;;;24.46;60.94
59787;BME280;45672;51.612;5.536;2023-06-22T10:32:50;101413.03;;;24.45;61.08
59787;BME280;45672;51.612;5.536;2023-06-22T10:35:15;101416.56;;;24.46;61.40
59787;BME280;45672;51.612;5.536;2023-06-22T10:37:44;101410.06;;;24.47;61.42
59787;BME280;45672;51.612;5.536;2023-06-22T10:40:15;101412.56;;;24.48;61.11
59787;BME280;45672;51.612;5.536;2023-06-22T10:42:41;101413.94;;;24.39;61.18
59787;BME280;45672;51.612;5.536;2023-06-22T10:45:07;101424.47;;;24.35;61.38
59787;BME280;45672;51.612;5.536;2023-06-22T10:47:33;101438.41;;;24.39;61.37
59787;BME280;45672;51.612;5.536;2023-06-22T10:49:58;101446.13;;;24.42;61.79
59787;BME280;45672;51.612;5.536;2023-06-22T10:52:24;101446.72;;;24.56;61.58
59787;BME280;45672;51.612;5.536;2023-06-22T10:54:49;101437.28;;;24.58;61.88
59787;BME280;45672;51.612;5.536;2023-06-22T10:57:14;101451.72;;;24.59;62.62
59787;BME280;45672;51.612;5.536;2023-06-22T10:59:40;101445.53;;;24.40;63.92
59787;BME280;45672;51.612;5.536;2023-06-22T11:02:05;101449.69;;;24.42;67.37
59787;BME280;45672;51.612;5.536;2023-06-22T11:04:31;101445.78;;;24.50;66.65
59787;BME280;45672;51.612;5.536;2023-06-22T11:06:56;101446.22;;;24.35;67.40
59787;BME280;45672;51.612;5.536;2023-06-22T11:09:21;101448.56;;;24.32;70.08
59787;BME280;45672;51.612;5.536;2023-06-22T11:11:47;101449.91;;;24.10;71.64
59787;BME280;45672;51.612;5.536;2023-06-22T11:14:13;101455.56;;;23.97;71.60
59787;BME280;45672;51.612;5.536;2023-06-22T11:16:39;101461.38;;;23.82;71.63
59787;BME280;45672;51.612;5.536;2023-06-22T11:19:05;101457.59;;;23.65;72.49
59787;BME280;45672;51.612;5.536;2023-06-22T11:21:31;101470.66;;;23.56;80.13
59787;BME280;45672;51.612;5.536;2023-06-22T11:23:57;101470.03;;;22.92;86.38
59787;BME280;45672;51.612;5.536;2023-06-22T11:26:23;101477.75;;;22.31;95.42
59787;BME280;45672;51.612;5.536;2023-06-22T11:28:49;101485.06;;;21.85;100.00
59787;BME280;45672;51.612;5.536;2023-06-22T11:31:14;101478.06;;;21.57;100.00
59787;BME280;45672;51.612;5.536;2023-06-22T11:33:40;101473.97;;;21.28;100.00
59787;BME280;45672;51.612;5.536;2023-06-22T11:36:05;101467.50;;;21.02;100.00
59787;BME280;45672;51.612;5.536;2023-06-22T11:38:30;101466.69;;;20.95;100.00
59787;BME280;45672;51.612;5.536;2023-06-22T11:40:58;101473.97;;;20.88;100.00
59787;BME280;45672;51.612;5.536;2023-06-22T11:43:23;101478.78;;;20.92;100.00
59787;BME280;45672;51.612;5.536;2023-06-22T11:45:49;101470.03;;;20.97;100.00
59787;BME280;45672;51.612;5.536;2023-06-22T11:48:14;101483.75;;;21.02;100.00
59787;BME280;45672;51.612;5.536;2023-06-22T11:50:40;101481.47;;;20.99;100.00
59787;BME280;45672;51.612;5.536;2023-06-22T11:53:05;101482.28;;;20.79;100.00
59787;BME280;45672;51.612;5.536;2023-06-22T11:55:30;101473.53;;;20.64;100.00
59787;BME280;45672;51.612;5.536;2023-06-22T11:57:57;101462.47;;;20.52;100.00
59787;BME280;45672;51.612;5.536;2023-06-22T12:00:25;101470.59;;;20.45;100.00
59787;BME280;45672;51.612;5.536;2023-06-22T12:02:51;101446.66;;;20.42;100.00
59787;BME280;45672;51.612;5.536;2023-06-22T12:05:18;101432.69;;;20.12;100.00
59787;BME280;45672;51.612;5.536;2023-06-22T12:07:44;101423.88;;;19.90;100.00
59787;BME280;45672;51.612;5.536;2023-06-22T12:10:09;101413.63;;;19.72;100.00
59787;BME280;45672;51.612;5.536;2023-06-22T12:12:34;101408.97;;;19.52;100.00
59787;BME280;45672;51.612;5.536;2023-06-22T12:15:00;101406.41;;;19.37;100.00
59787;BME280;45672;51.612;5.536;2023-06-22T12:17:28;101414.06;;;19.34;100.00
59787;BME280;45672;51.612;5.536;2023-06-22T12:19:54;101399.97;;;19.32;100.00
59787;BME280;45672;51.612;5.536;2023-06-22T12:22:19;101406.53;;;19.22;100.00
59787;BME280;45672;51.612;5.536;2023-06-22T12:24:44;101396.00;;;19.27;100.00
59787;BME280;45672;51.612;5.536;2023-06-22T12:27:10;101389.69;;;19.14;100.00
59787;BME280;45672;51.612;5.536;2023-06-22T12:29:35;101387.97;;;19.06;100.00
59787;BME280;45672;51.612;5.536;2023-06-22T12:32:00;101387.63;;;19.16;100.00
59787;BME280;45672;51.612;5.536;2023-06-22T12:34:26;101394.00;;;19.08;100.00
59787;BME280;45672;51.612;5.536;2023-06-22T12:36:51;101380.63;;;18.93;100.00
59787;BME280;45672;51.612;5.536;2023-06-22T12:39:19;101376.03;;;18.87;100.00
59787;BME280;45672;51.612;5.536;2023-06-22T12:41:44;101384.41;;;18.99;100.00
59787;BME280;45672;51.612;5.536;2023-06-22T12:44:09;101378.91;;;18.85;100.00
59787;BME280;45672;51.612;5.536;2023-06-22T12:46:35;101385.59;;;18.89;100.00